Time;durP1;ratioP1;P1;durP2;ratioP2;P2;SDS_P1;SDS_P2;PMS_P1;PMS_P2;Temp;Humidity;BMP_temperature;BMP_pressure;BME280_temperature;BME280_humidity;BME280_pressure;Samples;Min_cycle;Max_cycle;Signal;HPM_P1;HPM_P2
2023/10/07 00:00:26;;;;;;;15.85;4.95;;;15.70;99.90;;;;;;4929468;29;20477;-96
2023/10/07 00:06:16;;;;;;;17.35;4.70;;;15.80;99.90;;;;;;4907911;29;20052;-95
2023/10/07 00:09:34;;;;;;;17.13;4.65;;;15.70;99.90;;;;;;5161695;23;20108;-96
2023/10/07 00:12:51;;;;;;;16.98;5.13;;;15.80;99.90;;;;;;5135724;23;20105;-96
2023/10/07 00:15:21;;;;;;;17.80;5.10;;;15.80;99.90;;;;;;4919559;29;20096;-95
2023/10/07 00:21:36;;;;;;;16.63;5.22;;;15.30;99.90;;;;;;4931407;29;20046;-96
2023/10/07 00:24:45;;;;;;;16.27;4.53;;;16.50;99.90;;;;;;4904694;29;20048;-96
2023/10/07 00:27:38;;;;;;;16.35;4.45;;;15.90;99.90;;;;;;4886556;29;20157;-96
2023/10/07 00:30:13;;;;;;;19.55;5.00;;;15.80;99.90;;;;;;4907682;29;20032;-96
2023/10/07 00:32:50;;;;;;;18.67;4.85;;;15.80;99.90;;;;;;4888928;29;20051;-96
2023/10/07 00:35:23;;;;;;;17.08;4.90;;;15.80;99.90;;;;;;4902962;29;20076;-96
2023/10/07 00:37:49;;;;;;;20.63;4.80;;;15.80;99.90;;;;;;4920666;29;20052;-96
2023/10/07 00:40:45;;;;;;;19.35;5.20;;;16.50;99.90;;;;;;4926323;29;20103;-96
2023/10/07 00:43:30;;;;;;;19.83;5.30;;;15.40;99.90;;;;;;4908725;29;20111;-95
2023/10/07 00:46:20;;;;;;;19.60;5.63;;;15.80;99.90;;;;;;4867792;29;20056;-96
2023/10/07 00:52:12;;;;;;;17.85;5.72;;;15.80;99.90;;;;;;4924952;29;20052;-96
2023/10/07 01:02:51;;;;;;;19.45;5.25;;;15.80;99.90;;;;;;4956615;23;20054;-96
2023/10/07 01:12:12;;;;;;;14.52;4.70;;;15.70;99.90;;;;;;4943969;29;20043;-96
2023/10/07 01:14:46;;;;;;;18.05;5.43;;;15.80;99.90;;;;;;4956095;23;20035;-96
2023/10/07 01:17:23;;;;;;;15.25;4.72;;;15.70;99.90;;;;;;4910359;29;20067;-96
2023/10/07 01:19:52;;;;;;;19.50;5.20;;;15.70;99.90;;;;;;4909283;29;20044;-96
2023/10/07 01:22:37;;;;;;;20.05;5.47;;;16.10;99.90;;;;;;4907001;29;20135;-95
2023/10/07 01:28:01;;;;;;;16.50;5.70;;;15.70;99.90;;;;;;4928678;29;20055;-96
2023/10/07 01:30:29;;;;;;;19.15;5.40;;;16.00;99.90;;;;;;4922237;29;20047;-95
2023/10/07 01:33:25;;;;;;;20.95;5.50;;;16.00;99.90;;;;;;4916743;29;20052;-96
2023/10/07 01:38:54;;;;;;;16.92;5.25;;;15.80;99.90;;;;;;4928313;29;20060;-96
2023/10/07 01:45:10;;;;;;;17.73;5.00;;;15.80;99.90;;;;;;4921531;29;20056;-96
2023/10/07 01:47:49;;;;;;;14.68;5.43;;;15.90;99.90;;;;;;4935635;29;20056;-95
2023/10/07 01:50:38;;;;;;;15.93;5.53;;;15.90;99.90;;;;;;4903257;29;20135;-96
2023/10/07 01:53:16;;;;;;;20.88;5.57;;;15.90;99.90;;;;;;4906829;29;20036;-96
2023/10/07 01:55:58;;;;;;;15.35;5.43;;;15.90;99.90;;;;;;4905282;29;20059;-94
2023/10/07 01:58:42;;;;;;;16.80;5.63;;;15.90;99.90;;;;;;4905591;29;20492;-96
2023/10/07 02:01:07;;;;;;;;;;;15.70;99.90;;;;;;4905530;29;20052;-96
2023/10/07 02:03:46;;;;;;;17.33;5.30;;;16.00;99.90;;;;;;4907002;29;20386;-96
2023/10/07 02:06:17;;;;;;;19.75;5.95;;;16.00;99.90;;;;;;4923042;29;20154;-96
2023/10/07 02:08:59;;;;;;;17.45;5.28;;;16.00;99.90;;;;;;4906430;29;20044;-96
2023/10/07 02:11:40;;;;;;;16.77;5.53;;;16.00;99.90;;;;;;4905970;29;20040;-96
2023/10/07 02:14:23;;;;;;;20.20;5.45;;;16.10;99.90;;;;;;4905579;29;20530;-96
2023/10/07 02:17:19;;;;;;;19.23;5.60;;;16.10;99.90;;;;;;4901299;29;20060;-96
2023/10/07 02:20:23;;;;;;;14.80;5.72;;;16.10;99.90;;;;;;4906086;29;20378;-96
2023/10/07 02:23:15;;;;;;;18.00;5.30;;;16.10;99.90;;;;;;4906777;29;20052;-96
2023/10/07 02:25:41;;;;;;;18.50;5.45;;;16.10;99.90;;;;;;4904861;29;20056;-96
2023/10/07 02:28:29;;;;;;;19.00;5.28;;;16.20;99.90;;;;;;4906253;29;20064;-95
2023/10/07 02:31:18;;;;;;;17.42;5.30;;;16.10;99.90;;;;;;4934957;29;20564;-96
2023/10/07 02:33:57;;;;;;;15.57;5.50;;;15.80;99.90;;;;;;4904062;29;20099;-96
2023/10/07 02:36:51;;;;;;;15.68;5.82;;;16.20;99.90;;;;;;4904091;29;20505;-96
2023/10/07 02:39:27;;;;;;;18.00;5.72;;;16.20;99.90;;;;;;4903702;29;20075;-96
2023/10/07 02:42:46;;;;;;;15.25;5.13;;;16.10;99.90;;;;;;4904235;29;20069;-96
2023/10/07 02:47:50;;;;;;;16.73;5.38;;;16.30;99.90;;;;;;4897651;29;20049;-96
2023/10/07 02:50:20;;;;;;;18.45;5.72;;;16.30;99.90;;;;;;4890424;29;20060;-95
2023/10/07 02:58:09;;;;;;;17.52;6.53;;;17.30;99.90;;;;;;4919982;29;20087;-94
2023/10/07 03:00:51;;;;;;;20.20;5.88;;;16.30;99.90;;;;;;4922005;29;20048;-96
2023/10/07 03:06:00;;;;;;;16.48;5.43;;;16.60;99.90;;;;;;4937853;29;20052;-95
2023/10/07 03:11:13;;;;;;;19.42;5.78;;;16.30;99.90;;;;;;4954994;23;21731;-95
2023/10/07 03:13:49;;;;;;;20.95;5.75;;;16.50;99.90;;;;;;4905875;29;20052;-95
2023/10/07 03:19:04;;;;;;;16.58;5.90;;;16.40;99.90;;;;;;4936678;29;20056;-94
2023/10/07 03:24:32;;;;;;;20.60;6.78;;;16.20;99.90;;;;;;4935268;29;20495;-94
2023/10/07 03:27:21;;;;;;;17.50;5.68;;;15.90;99.90;;;;;;4905784;29;20056;-96
2023/10/07 03:33:08;;;;;;;17.65;5.78;;;16.40;99.90;;;;;;4922043;23;20051;-94
2023/10/07 03:38:25;;;;;;;17.42;6.13;;;16.50;99.90;;;;;;4936114;29;20118;-96
2023/10/07 03:40:57;;;;;;;17.92;5.88;;;16.40;99.90;;;;;;4936079;29;20054;-94
2023/10/07 03:43:38;;;;;;;18.35;5.93;;;16.40;99.90;;;;;;4920006;29;20114;-94
2023/10/07 03:46:10;;;;;;;14.88;5.50;;;16.20;99.90;;;;;;4922577;29;20054;-95
2023/10/07 03:48:39;;;;;;;17.75;6.22;;;16.40;99.90;;;;;;4926612;29;20052;-94
2023/10/07 03:51:33;;;;;;;22.30;7.63;;;16.50;99.90;;;;;;4921189;29;20051;-96
2023/10/07 03:57:00;;;;;;;18.55;5.93;;;16.50;99.90;;;;;;4951830;29;20052;-95
2023/10/07 03:59:34;;;;;;;21.85;6.90;;;16.40;99.90;;;;;;4919657;29;20055;-95
2023/10/07 04:02:00;;;;;;;;;;;17.20;99.90;;;;;;5053279;23;20056;-94
2023/10/07 04:04:29;;;;;;;17.80;6.15;;;16.40;99.90;;;;;;4867570;29;19912;-94
2023/10/07 04:07:08;;;;;;;22.00;5.95;;;16.60;99.90;;;;;;4883638;29;20061;-95
2023/10/07 04:09:45;;;;;;;17.92;6.28;;;16.40;99.90;;;;;;4866066;29;20052;-94
2023/10/07 04:12:17;;;;;;;20.02;6.65;;;16.40;99.90;;;;;;4862667;29;20057;-94
2023/10/07 04:14:56;;;;;;;14.80;5.80;;;16.90;99.90;;;;;;4860407;29;20053;-94
2023/10/07 04:17:31;;;;;;;21.95;6.38;;;16.90;99.90;;;;;;4860410;29;20078;-94
2023/10/07 04:23:05;;;;;;;19.10;6.35;;;16.40;99.90;;;;;;4825511;29;20132;-95
2023/10/07 04:26:09;;;;;;;17.20;5.72;;;16.40;99.90;;;;;;4860155;29;20137;-96
2023/10/07 04:28:54;;;;;;;17.75;6.25;;;15.90;99.90;;;;;;4861589;29;20132;-95
2023/10/07 04:31:37;;;;;;;17.27;6.78;;;16.60;99.90;;;;;;4860759;29;20398;-95
2023/10/07 04:38:18;;;;;;;18.05;6.18;;;16.30;99.90;;;;;;4860603;29;20053;-95
2023/10/07 04:46:23;;;;;;;20.17;6.68;;;16.40;99.90;;;;;;4898787;29;20048;-94
2023/10/07 04:48:56;;;;;;;19.95;6.60;;;16.30;99.90;;;;;;4882144;29;20094;-95
2023/10/07 04:54:23;;;;;;;21.42;7.13;;;16.40;99.90;;;;;;4881696;29;20057;-96
2023/10/07 04:56:54;;;;;;;21.75;6.82;;;16.40;99.90;;;;;;4882053;29;20052;-96
2023/10/07 04:59:57;;;;;;;19.27;6.80;;;16.70;99.90;;;;;;4879891;29;20052;-96
2023/10/07 05:02:41;;;;;;;21.10;6.30;;;17.10;99.90;;;;;;4896145;29;20061;-94
2023/10/07 05:05:15;;;;;;;15.93;5.07;;;16.40;99.90;;;;;;4886976;29;20056;-96
2023/10/07 05:07:43;;;;;;;16.08;5.50;;;16.40;99.90;;;;;;4882408;29;20049;-95
2023/10/07 05:10:42;;;;;;;18.63;5.43;;;16.40;99.90;;;;;;4890188;29;20080;-94
2023/10/07 05:13:26;;;;;;;16.83;6.05;;;16.40;99.90;;;;;;4890017;29;20293;-93
2023/10/07 05:15:55;;;;;;;;;;;16.40;99.90;;;;;;4883754;29;20059;-94
2023/10/07 05:18:43;;;;;;;19.08;5.75;;;16.40;99.90;;;;;;4881194;29;19919;-94
2023/10/07 05:21:26;;;;;;;15.57;4.80;;;16.40;99.90;;;;;;4881556;29;20179;-96
2023/10/07 05:24:57;;;;;;;16.23;5.47;;;16.40;99.90;;;;;;4883882;29;20060;-96
2023/10/07 05:27:23;;;;;;;18.13;5.10;;;16.20;99.90;;;;;;4879605;29;20516;-95
2023/10/07 05:29:58;;;;;;;15.15;5.53;;;16.90;99.90;;;;;;4900981;29;20061;-83
2023/10/07 05:32:27;;;;;;;17.25;5.22;;;17.30;99.90;;;;;;4864038;29;20059;-83
2023/10/07 05:34:57;;;;;;;17.45;5.43;;;16.40;99.90;;;;;;4865285;29;20049;-85
2023/10/07 05:37:32;;;;;;;15.10;5.43;;;16.50;99.90;;;;;;4881378;29;20036;-83
2023/10/07 05:39:59;;;;;;;19.50;5.95;;;16.40;99.90;;;;;;4881144;29;20430;-84
2023/10/07 05:42:25;;;;;;;19.17;5.43;;;16.50;99.90;;;;;;4880855;29;20072;-84
2023/10/07 05:45:06;;;;;;;18.20;5.68;;;16.50;99.90;;;;;;4895887;29;20049;-84
2023/10/07 05:47:32;;;;;;;17.08;6.32;;;16.50;99.90;;;;;;4863773;29;20108;-84
2023/10/07 05:50:08;;;;;;;16.23;5.63;;;16.50;99.90;;;;;;4864260;29;20048;-84
2023/10/07 05:53:04;;;;;;;17.98;5.65;;;16.50;99.90;;;;;;4879862;29;20486;-84
2023/10/07 05:55:46;;;;;;;16.30;5.35;;;16.60;99.90;;;;;;4855150;29;20564;-84
2023/10/07 05:58:21;;;;;;;16.73;5.40;;;16.50;99.90;;;;;;4874937;29;20128;-84
2023/10/07 06:00:47;;;;;;;18.42;5.30;;;16.60;99.90;;;;;;4880630;29;20135;-84
2023/10/07 06:03:13;;;;;;;21.52;6.05;;;16.50;99.90;;;;;;4881602;29;20176;-84
2023/10/07 06:05:39;;;;;;;16.83;5.32;;;16.70;99.90;;;;;;4899773;29;20076;-84
2023/10/07 06:08:10;;;;;;;18.65;5.93;;;16.60;99.90;;;;;;4882350;29;20548;-84
2023/10/07 06:10:38;;;;;;;18.75;6.20;;;16.50;99.90;;;;;;4883233;29;20405;-84
2023/10/07 06:13:10;;;;;;;16.20;5.60;;;16.50;99.90;;;;;;4883021;29;20161;-84
2023/10/07 06:15:37;;;;;;;18.40;5.88;;;16.50;99.90;;;;;;4882229;29;20444;-85
2023/10/07 06:18:04;;;;;;;17.40;6.13;;;16.60;99.90;;;;;;4914564;29;20076;-84
2023/10/07 06:20:37;;;;;;;17.05;5.30;;;16.60;99.90;;;;;;4881745;29;20053;-84
2023/10/07 06:23:13;;;;;;;16.63;5.97;;;16.60;99.90;;;;;;4882366;29;20040;-84
2023/10/07 06:25:49;;;;;;;18.50;6.15;;;16.60;99.90;;;;;;4883035;29;20507;-83
2023/10/07 06:28:30;;;;;;;17.10;5.70;;;16.60;99.90;;;;;;4881917;29;20132;-84
2023/10/07 06:31:13;;;;;;;17.88;5.60;;;16.60;99.90;;;;;;4898255;29;20044;-84
2023/10/07 06:33:43;;;;;;;15.45;5.22;;;16.60;99.90;;;;;;4882940;29;20087;-84
2023/10/07 06:36:12;;;;;;;16.15;5.93;;;16.50;99.90;;;;;;4881327;29;20065;-84
2023/10/07 06:38:39;;;;;;;14.73;5.15;;;16.60;99.90;;;;;;4882700;29;20397;-84
2023/10/07 06:41:10;;;;;;;20.25;5.88;;;16.60;99.90;;;;;;4899260;29;20052;-84
2023/10/07 06:43:42;;;;;;;16.20;5.75;;;16.60;99.90;;;;;;4880201;29;20095;-84
2023/10/07 06:46:11;;;;;;;17.92;5.22;;;16.60;99.90;;;;;;4879226;29;20049;-84
2023/10/07 06:48:40;;;;;;;16.13;5.47;;;16.60;99.90;;;;;;4880108;29;20052;-84
2023/10/07 06:51:10;;;;;;;18.65;6.40;;;16.50;99.90;;;;;;4886107;29;20048;-83
2023/10/07 06:53:42;;;;;;;16.75;5.60;;;16.50;99.90;;;;;;4898016;29;20060;-84
2023/10/07 06:56:13;;;;;;;16.42;5.78;;;16.50;99.90;;;;;;4885530;29;20161;-84
2023/10/07 06:58:39;;;;;;;16.80;5.82;;;16.50;99.90;;;;;;4909822;29;20049;-84
2023/10/07 07:01:17;;;;;;;17.65;5.50;;;16.50;99.90;;;;;;4879923;29;20052;-85
2023/10/07 07:03:43;;;;;;;17.33;5.15;;;16.50;99.90;;;;;;4877893;29;20045;-84
2023/10/07 07:06:17;;;;;;;19.65;5.15;;;16.50;99.90;;;;;;4878997;29;20063;-84
2023/10/07 07:08:45;;;;;;;16.92;5.85;;;16.50;99.90;;;;;;4875579;29;20043;-84
2023/10/07 07:11:12;;;;;;;19.40;5.47;;;16.50;99.90;;;;;;4888867;29;20389;-86
2023/10/07 07:13:43;;;;;;;16.33;5.40;;;16.60;99.90;;;;;;4880516;29;20537;-84
2023/10/07 07:16:13;;;;;;;16.25;6.10;;;16.50;99.90;;;;;;4879748;29;20409;-84
2023/10/07 07:18:40;;;;;;;17.67;6.18;;;16.50;99.90;;;;;;4878054;29;20561;-84
2023/10/07 07:23:51;;;;;;;15.93;5.50;;;16.60;99.90;;;;;;4894119;29;20057;-84
2023/10/07 07:26:21;;;;;;;19.35;5.90;;;16.50;99.90;;;;;;4877203;29;20056;-84
2023/10/07 07:28:47;;;;;;;16.08;5.95;;;17.00;99.90;;;;;;4878098;29;20044;-83
2023/10/07 07:31:19;;;;;;;19.08;5.80;;;16.50;99.90;;;;;;4876435;29;20060;-83
2023/10/07 07:33:48;;;;;;;20.38;6.03;;;16.60;99.90;;;;;;4875428;29;20084;-82
2023/10/07 07:39:06;;;;;;;16.67;6.13;;;16.60;99.90;;;;;;4892715;29;20092;-83
2023/10/07 07:41:56;;;;;;;19.75;6.55;;;16.70;99.90;;;;;;4878376;29;20612;-82
2023/10/07 07:44:34;;;;;;;18.15;5.95;;;16.80;99.90;;;;;;4880859;29;20457;-82
2023/10/07 07:47:02;;;;;;;20.60;6.78;;;17.00;99.90;;;;;;4883047;29;20053;-82
2023/10/07 07:49:33;;;;;;;16.88;6.30;;;17.10;99.90;;;;;;4877706;29;20068;-82
2023/10/07 07:52:00;;;;;;;18.40;6.45;;;17.10;99.90;;;;;;4880110;29;20045;-81
2023/10/07 07:54:26;;;;;;;17.75;5.88;;;17.20;99.90;;;;;;4879816;29;20511;-82
2023/10/07 07:56:54;;;;;;;17.67;5.72;;;17.20;99.90;;;;;;4912292;29;20060;-82
2023/10/07 07:59:20;;;;;;;20.20;5.97;;;17.20;99.90;;;;;;4879922;29;20484;-82
2023/10/07 08:01:52;;;;;;;18.17;6.43;;;17.30;99.90;;;;;;4880553;29;20048;-82
2023/10/07 08:04:18;;;;;;;16.52;5.85;;;17.20;99.90;;;;;;4880098;29;20052;-83
2023/10/07 08:06:47;;;;;;;14.68;5.32;;;17.30;99.90;;;;;;4909969;29;20409;-82
2023/10/07 08:09:13;;;;;;;18.13;6.00;;;17.30;99.90;;;;;;4911905;29;20056;-81
2023/10/07 08:11:40;;;;;;;13.88;5.40;;;17.30;99.90;;;;;;4897454;29;20496;-82
2023/10/07 08:14:09;;;;;;;15.98;5.47;;;17.40;99.90;;;;;;4880200;29;20487;-82
2023/10/07 08:16:50;;;;;;;16.20;5.20;;;17.40;99.90;;;;;;4881035;29;20084;-82
2023/10/07 08:19:20;;;;;;;20.38;6.10;;;17.40;99.90;;;;;;4880772;29;20405;-82
2023/10/07 08:21:51;;;;;;;14.25;5.20;;;17.80;99.90;;;;;;4880174;29;20052;-83
2023/10/07 08:24:18;;;;;;;15.57;4.93;;;17.40;99.90;;;;;;4880687;29;20088;-82
2023/10/07 08:26:48;;;;;;;16.02;4.95;;;17.50;99.90;;;;;;4880869;29;20052;-83
2023/10/07 08:29:31;;;;;;;16.23;5.15;;;17.60;99.90;;;;;;4879538;29;20400;-84
2023/10/07 08:32:09;;;;;;;14.45;4.90;;;17.70;99.90;;;;;;4881129;29;20056;-84
2023/10/07 08:34:35;;;;;;;17.05;4.80;;;17.80;99.90;;;;;;4911970;29;20137;-85
2023/10/07 08:37:02;;;;;;;16.13;4.50;;;17.80;99.90;;;;;;4881114;29;20131;-85
2023/10/07 08:39:28;;;;;;;13.80;4.40;;;17.90;99.90;;;;;;4881147;29;20485;-83
2023/10/07 08:41:58;;;;;;;14.93;5.07;;;18.00;99.90;;;;;;4878819;29;20096;-84
2023/10/07 08:44:33;;;;;;;15.88;5.07;;;18.10;99.90;;;;;;4861840;29;20095;-84
2023/10/07 08:47:10;;;;;;;15.65;4.97;;;18.10;99.90;;;;;;4861909;29;20045;-84
2023/10/07 08:49:38;;;;;;;16.33;4.78;;;18.00;99.90;;;;;;4861194;29;20141;-84
2023/10/07 08:52:10;;;;;;;14.40;5.53;;;18.20;99.90;;;;;;4862187;29;20565;-84
2023/10/07 08:54:38;;;;;;;18.70;4.47;;;18.00;99.90;;;;;;4862518;29;20092;-84
2023/10/07 08:57:10;;;;;;;14.27;4.82;;;18.00;99.90;;;;;;4861602;29;20044;-83
2023/10/07 08:59:37;;;;;;;18.40;4.75;;;18.00;99.90;;;;;;4864664;29;20565;-83
2023/10/07 09:02:12;;;;;;;18.13;4.78;;;18.00;99.90;;;;;;4866858;29;20052;-84
2023/10/07 09:04:41;;;;;;;13.57;4.70;;;18.00;99.90;;;;;;4864960;29;20509;-84
2023/10/07 09:07:13;;;;;;;14.25;4.63;;;18.00;99.90;;;;;;4865981;29;20474;-83
2023/10/07 09:09:46;;;;;;;12.65;4.32;;;18.00;99.90;;;;;;4865248;29;20041;-83
2023/10/07 09:12:36;;;;;;;15.00;4.38;;;17.90;99.90;;;;;;4865537;29;20102;-84
2023/10/07 09:15:26;;;;;;;15.70;4.72;;;18.00;99.90;;;;;;4865228;29;20132;-83
2023/10/07 09:18:41;;;;;;;13.35;4.22;;;18.00;99.90;;;;;;4864379;29;20049;-83
2023/10/07 09:21:22;;;;;;;14.25;4.25;;;18.20;99.90;;;;;;4865256;29;20458;-83
2023/10/07 09:23:59;;;;;;;12.23;4.32;;;18.30;99.90;;;;;;4864601;29;20108;-83
2023/10/07 09:26:34;;;;;;;14.45;4.55;;;18.50;99.90;;;;;;4865088;29;20063;-83
2023/10/07 09:29:14;;;;;;;14.05;4.05;;;18.60;99.90;;;;;;4864930;29;20077;-83
2023/10/07 09:31:45;;;;;;;15.18;5.05;;;18.70;99.90;;;;;;4864517;29;20049;-83
2023/10/07 09:34:24;;;;;;;15.60;4.20;;;18.80;99.90;;;;;;4864219;29;20057;-83
2023/10/07 09:36:56;;;;;;;14.60;4.60;;;18.80;99.90;;;;;;4865057;29;20096;-83
2023/10/07 09:39:34;;;;;;;12.65;4.15;;;18.70;99.90;;;;;;4863827;29;20105;-83
2023/10/07 09:42:04;;;;;;;15.02;4.65;;;18.70;99.90;;;;;;4866170;29;20405;-84
2023/10/07 09:44:37;;;;;;;14.32;4.10;;;18.80;99.90;;;;;;4880103;29;20068;-85
2023/10/07 09:47:10;;;;;;;14.40;4.47;;;18.90;99.90;;;;;;4864905;29;20573;-86
2023/10/07 09:49:36;;;;;;;16.20;3.75;;;19.00;99.90;;;;;;4865152;29;20231;-86
2023/10/07 09:52:17;;;;;;;14.38;4.00;;;19.30;99.90;;;;;;4874225;29;20576;-85
2023/10/07 09:55:21;;;;;;;11.38;3.70;;;19.00;99.90;;;;;;4883216;29;20048;-86
2023/10/07 09:58:11;;;;;;;13.07;4.05;;;19.10;99.90;;;;;;4900584;29;20073;-86
2023/10/07 10:01:04;;;;;;;11.45;3.30;;;19.20;99.90;;;;;;4922298;29;20052;-85
2023/10/07 10:04:00;;;;;;;13.27;3.55;;;19.20;99.90;;;;;;4901861;29;20041;-86
2023/10/07 10:06:43;;;;;;;15.48;4.05;;;19.10;99.90;;;;;;4881119;29;20498;-85
2023/10/07 10:09:09;;;;;;;11.50;3.90;;;19.20;99.90;;;;;;4882378;29;20064;-85
2023/10/07 10:11:44;;;;;;;14.23;3.70;;;19.20;99.90;;;;;;4913585;29;20059;-85
2023/10/07 10:16:53;;;;;;;13.65;3.78;;;19.30;99.90;;;;;;4898701;29;20044;-85
2023/10/07 10:19:44;;;;;;;13.05;3.65;;;19.30;99.90;;;;;;4881905;29;20041;-86
2023/10/07 10:22:13;;;;;;;13.85;3.65;;;19.40;99.90;;;;;;4884007;29;20077;-85
2023/10/07 10:24:43;;;;;;;14.30;4.05;;;19.40;99.90;;;;;;4886428;29;20509;-86
2023/10/07 10:27:13;;;;;;;12.82;3.38;;;19.40;99.90;;;;;;4914661;29;20139;-86
2023/10/07 10:30:04;;;;;;;11.48;3.55;;;19.40;99.90;;;;;;4897336;29;20048;-86
2023/10/07 10:32:36;;;;;;;14.70;4.07;;;19.40;99.90;;;;;;4883780;29;20127;-86
2023/10/07 10:35:06;;;;;;;13.82;3.63;;;19.40;99.90;;;;;;4882001;29;20501;-85
2023/10/07 10:37:34;;;;;;;10.05;3.50;;;19.40;99.90;;;;;;4882319;29;20497;-85
2023/10/07 10:40:27;;;;;;;15.55;3.70;;;19.30;99.90;;;;;;4881772;29;20053;-87
2023/10/07 10:42:53;;;;;;;14.75;4.15;;;19.40;99.90;;;;;;4878438;29;20071;-85
2023/10/07 10:45:41;;;;;;;14.40;3.80;;;19.40;99.90;;;;;;4906701;29;20128;-85
2023/10/07 10:48:30;;;;;;;15.00;4.00;;;19.10;99.90;;;;;;4878406;29;20113;-84
2023/10/07 10:50:56;;;;;;;17.10;3.90;;;19.40;99.90;;;;;;4875715;29;20056;-84
2023/10/07 10:53:35;;;;;;;16.38;4.72;;;19.40;99.90;;;;;;4876405;29;20713;-85
2023/10/07 10:56:03;;;;;;;11.68;3.58;;;19.50;99.90;;;;;;4899084;29;20454;-85
2023/10/07 10:58:30;;;;;;;16.48;4.38;;;19.60;99.90;;;;;;4877176;29;20061;-85
2023/10/07 11:01:07;;;;;;;16.42;4.20;;;19.80;99.90;;;;;;4878402;29;20041;-85
2023/10/07 11:03:33;;;;;;;14.20;3.90;;;20.00;99.90;;;;;;4877490;29;20061;-85
2023/10/07 11:06:07;;;;;;;17.60;4.00;;;20.20;99.90;;;;;;4879697;29;20044;-84
2023/10/07 11:08:40;;;;;;;15.77;3.90;;;19.80;99.90;;;;;;4878301;29;20056;-85
2023/10/07 11:11:21;;;;;;;13.65;4.07;;;20.00;99.90;;;;;;4878560;29;20052;-86
2023/10/07 11:13:54;;;;;;;13.35;3.92;;;20.00;99.90;;;;;;4875104;29;20493;-85
2023/10/07 11:16:57;;;;;;;13.07;3.85;;;20.10;99.90;;;;;;4875294;29;20096;-85
2023/10/07 11:19:59;;;;;;;12.27;3.60;;;20.20;99.90;;;;;;4879313;29;20045;-85
2023/10/07 11:22:27;;;;;;;13.23;3.80;;;20.10;99.90;;;;;;4878861;29;20075;-88
2023/10/07 11:24:53;;;;;;;13.20;4.03;;;20.10;99.90;;;;;;4877697;29;20386;-87
2023/10/07 11:27:27;;;;;;;12.90;4.25;;;20.10;99.90;;;;;;4877645;29;20064;-86
2023/10/07 11:30:11;;;;;;;14.35;3.70;;;20.00;99.90;;;;;;4878845;29;20441;-85
2023/10/07 11:32:49;;;;;;;13.90;4.10;;;20.10;99.90;;;;;;4863018;29;20045;-85
2023/10/07 11:35:27;;;;;;;14.10;3.60;;;19.80;99.90;;;;;;4872714;29;20053;-85
2023/10/07 11:38:17;;;;;;;14.73;4.28;;;20.10;99.90;;;;;;4878082;29;20109;-87
2023/10/07 11:40:49;;;;;;;14.82;3.67;;;20.20;99.90;;;;;;4889151;24;20056;-86
2023/10/07 11:43:16;;;;;;;13.43;4.32;;;20.20;99.90;;;;;;4897277;29;20056;-86
2023/10/07 11:45:51;;;;;;;17.20;4.88;;;20.10;99.90;;;;;;4895769;29;20052;-86
2023/10/07 11:48:21;;;;;;;12.88;3.95;;;20.30;99.90;;;;;;4911284;29;20076;-86
2023/10/07 11:51:03;;;;;;;12.65;3.65;;;20.40;99.90;;;;;;4896882;29;20041;-85
2023/10/07 11:53:41;;;;;;;13.73;4.15;;;20.40;99.90;;;;;;4896108;29;20495;-87
2023/10/07 11:56:11;;;;;;;15.90;4.07;;;20.30;99.90;;;;;;4895913;29;20052;-87
2023/10/07 11:58:37;;;;;;;12.45;3.78;;;20.30;99.90;;;;;;4895905;29;20040;-88
2023/10/07 12:01:54;;;;;;;16.13;4.00;;;20.40;99.90;;;;;;4896171;29;20052;-87
2023/10/07 12:04:38;;;;;;;14.65;3.90;;;20.10;99.90;;;;;;4861650;29;20061;-86
2023/10/07 12:07:06;;;;;;;13.40;4.38;;;20.00;99.90;;;;;;4861348;29;20061;-88
2023/10/07 12:09:33;;;;;;;16.00;4.38;;;20.10;99.90;;;;;;4862010;29;20053;-86
2023/10/07 12:12:11;;;;;;;12.00;4.00;;;20.20;99.90;;;;;;4863302;29;20215;-86
2023/10/07 12:15:08;;;;;;;13.40;4.10;;;20.20;99.90;;;;;;4860421;29;20148;-86
2023/10/07 12:17:44;;;;;;;11.30;3.80;;;20.80;99.90;;;;;;4861568;29;20053;-87
2023/10/07 12:20:13;;;;;;;13.75;4.22;;;20.70;99.90;;;;;;4896541;29;20201;-87
2023/10/07 12:22:43;;;;;;;12.73;3.80;;;20.80;99.90;;;;;;4897685;29;20055;-87
2023/10/07 12:25:18;;;;;;;12.10;4.07;;;20.90;99.90;;;;;;4896782;29;20048;-87
2023/10/07 12:27:53;;;;;;;15.70;4.15;;;21.00;99.90;;;;;;4912408;29;20049;-87
2023/10/07 12:30:40;;;;;;;12.95;4.00;;;21.10;99.90;;;;;;4898290;29;20088;-87
2023/10/07 12:33:09;;;;;;;13.95;4.38;;;21.20;99.90;;;;;;4895842;29;20433;-87
2023/10/07 12:35:53;;;;;;;13.73;4.35;;;21.20;99.90;;;;;;4902387;29;20057;-86
2023/10/07 12:38:34;;;;;;;14.90;4.10;;;21.00;99.90;;;;;;4878106;29;20086;-87
2023/10/07 12:41:51;;;;;;;14.38;4.22;;;21.00;99.90;;;;;;4893487;23;20044;-86
2023/10/07 12:44:46;;;;;;;12.77;4.15;;;20.70;99.90;;;;;;4899256;29;20047;-87
2023/10/07 12:47:11;;;;;;;14.13;4.28;;;20.30;99.90;;;;;;4899023;29;20107;-87
2023/10/07 12:49:40;;;;;;;14.13;4.05;;;20.60;99.90;;;;;;4930227;29;20562;-86
2023/10/07 12:52:18;;;;;;;17.80;4.80;;;20.60;99.90;;;;;;4899876;29;20180;-86
2023/10/07 12:54:56;;;;;;;11.77;4.45;;;20.70;99.90;;;;;;4899158;29;20056;-87
2023/10/07 12:57:28;;;;;;;15.02;4.03;;;20.80;99.90;;;;;;4900139;29;20063;-86
2023/10/07 13:03:21;;;;;;;14.85;4.60;;;20.60;99.90;;;;;;4930101;29;20432;-87
2023/10/07 13:06:08;;;;;;;15.05;4.50;;;20.50;99.90;;;;;;4916575;29;20084;-87
2023/10/07 13:08:49;;;;;;;14.82;4.28;;;20.60;99.90;;;;;;4930723;29;20087;-88
2023/10/07 13:11:15;;;;;;;14.20;4.60;;;20.70;99.90;;;;;;4916709;29;20055;-87
2023/10/07 13:14:00;;;;;;;14.35;3.92;;;20.90;99.90;;;;;;4932080;29;20384;-87
2023/10/07 13:16:47;;;;;;;11.50;4.80;;;20.90;99.90;;;;;;4899272;29;20512;-86
2023/10/07 13:21:44;;;;;;;12.07;4.35;;;21.10;99.90;;;;;;4921253;23;20053;-87
2023/10/07 13:24:22;;;;;;;12.27;4.32;;;21.00;99.90;;;;;;4899333;29;20052;-89
2023/10/07 13:26:57;;;;;;;15.93;4.22;;;20.90;99.90;;;;;;4899864;29;20055;-85
2023/10/07 13:29:43;;;;;;;12.45;4.03;;;20.80;99.90;;;;;;4899321;29;20072;-86
2023/10/07 13:32:21;;;;;;;12.07;4.03;;;20.70;99.90;;;;;;4915490;29;20067;-85
2023/10/07 13:34:56;;;;;;;12.60;4.35;;;20.50;99.90;;;;;;4900049;29;20075;-88
2023/10/07 13:37:25;;;;;;;14.10;4.78;;;20.40;99.90;;;;;;4898921;29;20047;-83
2023/10/07 13:39:54;;;;;;;13.20;4.25;;;20.30;99.90;;;;;;4914180;29;20475;-84
2023/10/07 13:42:22;;;;;;;12.80;4.05;;;20.40;99.90;;;;;;4898644;29;20055;-83
2023/10/07 13:44:47;;;;;;;15.55;4.97;;;20.30;99.90;;;;;;4899320;29;20056;-83
2023/10/07 13:47:13;;;;;;;14.35;4.88;;;20.40;99.90;;;;;;4905066;29;20130;-85
2023/10/07 13:49:45;;;;;;;14.18;4.25;;;20.30;99.90;;;;;;4924404;29;20095;-83
2023/10/07 13:52:18;;;;;;;13.23;4.53;;;20.20;99.90;;;;;;4912077;29;20044;-89
2023/10/07 13:57:37;;;;;;;13.35;4.60;;;20.20;99.90;;;;;;4903209;29;20488;-88
2023/10/07 14:00:24;;;;;;;14.05;4.50;;;20.20;99.90;;;;;;4918059;29;20090;-88
2023/10/07 14:03:19;;;;;;;12.82;4.30;;;20.10;99.90;;;;;;4903517;29;20582;-88
2023/10/07 14:06:01;;;;;;;14.32;4.25;;;20.10;99.90;;;;;;4899608;29;20063;-83
2023/10/07 14:08:29;;;;;;;13.02;4.60;;;20.10;99.90;;;;;;4902122;29;20547;-84
2023/10/07 14:11:00;;;;;;;13.52;4.47;;;20.20;99.90;;;;;;4919468;29;20056;-87
2023/10/07 14:13:40;;;;;;;12.65;4.25;;;20.10;99.90;;;;;;4902620;29;20651;-87
2023/10/07 14:16:10;;;;;;;15.40;4.43;;;20.00;99.90;;;;;;4899413;29;20078;-86
2023/10/07 14:21:30;;;;;;;11.73;4.32;;;19.80;99.90;;;;;;4879801;29;20112;-86
2023/10/07 14:23:56;;;;;;;13.63;4.22;;;19.70;99.90;;;;;;4879676;29;20064;-86
2023/10/07 14:26:32;;;;;;;12.50;4.65;;;19.70;99.90;;;;;;4889691;29;20048;-87
2023/10/07 14:29:18;;;;;;;13.50;4.43;;;19.50;99.90;;;;;;4897398;29;20123;-86
2023/10/07 14:32:27;;;;;;;15.45;4.63;;;19.50;99.90;;;;;;4895875;29;20107;-84
2023/10/07 14:34:53;;;;;;;14.35;4.90;;;19.10;99.90;;;;;;4897063;29;20052;-84
2023/10/07 14:37:33;;;;;;;;;;;;;;;;;;;;;
2023/10/07 14:40:17;;;;;;;14.95;4.55;;;19.50;99.90;;;;;;4895869;29;20048;-86
2023/10/07 14:42:45;;;;;;;17.27;4.55;;;19.20;99.90;;;;;;4898455;29;20049;-87
2023/10/07 14:45:16;;;;;;;16.75;4.55;;;19.30;99.90;;;;;;4898563;29;20057;-86
2023/10/07 14:47:50;;;;;;;12.60;4.80;;;19.20;99.90;;;;;;4896363;29;20068;-86
2023/10/07 14:50:26;;;;;;;13.57;4.72;;;19.20;99.90;;;;;;4897924;29;20061;-88
2023/10/07 14:55:36;;;;;;;13.93;4.85;;;19.20;99.90;;;;;;4898683;23;20212;-84
2023/10/07 14:58:04;;;;;;;13.93;4.80;;;19.10;99.90;;;;;;4881258;29;20157;-86
2023/10/07 15:00:30;;;;;;;16.05;5.15;;;19.10;99.90;;;;;;4880998;29;20089;-86
2023/10/07 15:03:01;;;;;;;15.25;4.90;;;19.10;99.90;;;;;;4899296;29;20125;-87
2023/10/07 15:05:33;;;;;;;15.75;4.70;;;19.00;99.90;;;;;;4894153;29;20532;-86